sensor_id;sensor_type;location;lat;lon;timestamp;P1;durP1;ratioP1;P2;durP2;ratioP2
34920;SDS011;21128;50.016;20.002;2023-01-15T00:01:35;9.83;;;3.80;;
34920;SDS011;21128;50.016;20.002;2023-01-15T00:04:29;6.40;;;2.93;;
34920;SDS011;21128;50.016;20.002;2023-01-15T00:07:15;5.37;;;3.10;;
34920;SDS011;21128;50.016;20.002;2023-01-15T00:10:17;5.00;;;2.93;;
34920;SDS011;21128;50.016;20.002;2023-01-15T00:13:10;5.50;;;2.70;;
34920;SDS011;21128;50.016;20.002;2023-01-15T00:16:03;5.55;;;2.60;;
34920;SDS011;21128;50.016;20.002;2023-01-15T00:19:05;4.53;;;2.37;;
34920;SDS011;21128;50.016;20.002;2023-01-15T00:21:57;7.47;;;2.60;;
34920;SDS011;21128;50.016;20.002;2023-01-15T00:24:44;3.73;;;2.07;;
34920;SDS011;21128;50.016;20.002;2023-01-15T00:27:49;6.77;;;2.00;;
34920;SDS011;21128;50.016;20.002;2023-01-15T00:30:38;3.03;;;1.83;;
34920;SDS011;21128;50.016;20.002;2023-01-15T00:33:53;5.87;;;2.30;;
34920;SDS011;21128;50.016;20.002;2023-01-15T00:36:58;4.25;;;2.15;;
34920;SDS011;21128;50.016;20.002;2023-01-15T00:39:58;4.17;;;1.70;;
34920;SDS011;21128;50.016;20.002;2023-01-15T00:43:07;5.07;;;2.03;;
34920;SDS011;21128;50.016;20.002;2023-01-15T00:46:00;4.33;;;2.10;;
34920;SDS011;21128;50.016;20.002;2023-01-15T00:48:53;3.70;;;1.90;;
34920;SDS011;21128;50.016;20.002;2023-01-15T00:51:40;5.35;;;1.95;;
34920;SDS011;21128;50.016;20.002;2023-01-15T00:54:25;4.70;;;1.87;;
34920;SDS011;21128;50.016;20.002;2023-01-15T00:57:14;2.73;;;1.57;;
34920;SDS011;21128;50.016;20.002;2023-01-15T01:00:00;4.50;;;1.80;;
34920;SDS011;21128;50.016;20.002;2023-01-15T01:02:46;5.73;;;1.70;;
34920;SDS011;21128;50.016;20.002;2023-01-15T01:05:32;4.15;;;1.80;;
34920;SDS011;21128;50.016;20.002;2023-01-15T01:08:25;4.33;;;2.00;;
34920;SDS011;21128;50.016;20.002;2023-01-15T01:11:11;3.90;;;1.70;;
34920;SDS011;21128;50.016;20.002;2023-01-15T01:14:03;3.27;;;2.00;;
34920;SDS011;21128;50.016;20.002;2023-01-15T01:16:49;2.97;;;1.50;;
34920;SDS011;21128;50.016;20.002;2023-01-15T01:19:35;1.90;;;1.37;;
34920;SDS011;21128;50.016;20.002;2023-01-15T01:22:21;5.90;;;1.87;;
34920;SDS011;21128;50.016;20.002;2023-01-15T01:25:07;5.77;;;2.03;;
34920;SDS011;21128;50.016;20.002;2023-01-15T01:27:57;3.90;;;1.80;;
34920;SDS011;21128;50.016;20.002;2023-01-15T01:30:43;2.20;;;1.57;;
34920;SDS011;21128;50.016;20.002;2023-01-15T01:33:28;2.60;;;1.40;;
34920;SDS011;21128;50.016;20.002;2023-01-15T01:36:17;6.13;;;2.40;;
34920;SDS011;21128;50.016;20.002;2023-01-15T01:39:04;6.70;;;1.90;;
34920;SDS011;21128;50.016;20.002;2023-01-15T01:41:51;4.03;;;1.80;;
34920;SDS011;21128;50.016;20.002;2023-01-15T01:47:24;4.40;;;1.70;;
34920;SDS011;21128;50.016;20.002;2023-01-15T01:50:17;3.23;;;1.77;;
34920;SDS011;21128;50.016;20.002;2023-01-15T01:53:07;6.35;;;1.80;;
34920;SDS011;21128;50.016;20.002;2023-01-15T01:55:58;3.85;;;1.70;;
34920;SDS011;21128;50.016;20.002;2023-01-15T01:58:46;4.90;;;1.95;;
34920;SDS011;21128;50.016;20.002;2023-01-15T02:01:35;4.67;;;2.20;;
34920;SDS011;21128;50.016;20.002;2023-01-15T02:04:21;3.50;;;2.00;;
34920;SDS011;21128;50.016;20.002;2023-01-15T02:07:10;4.23;;;1.80;;
34920;SDS011;21128;50.016;20.002;2023-01-15T02:10:02;4.17;;;2.10;;
34920;SDS011;21128;50.016;20.002;2023-01-15T02:16:12;4.33;;;1.87;;
34920;SDS011;21128;50.016;20.002;2023-01-15T02:28:37;4.40;;;1.90;;
34920;SDS011;21128;50.016;20.002;2023-01-15T02:31:38;4.10;;;2.00;;
34920;SDS011;21128;50.016;20.002;2023-01-15T02:34:36;3.20;;;1.87;;
34920;SDS011;21128;50.016;20.002;2023-01-15T02:37:29;2.85;;;2.00;;
34920;SDS011;21128;50.016;20.002;2023-01-15T02:40:19;2.80;;;1.70;;
34920;SDS011;21128;50.016;20.002;2023-01-15T02:43:07;3.50;;;2.00;;
34920;SDS011;21128;50.016;20.002;2023-01-15T02:45:55;3.83;;;1.60;;
34920;SDS011;21128;50.016;20.002;2023-01-15T02:48:45;3.57;;;1.90;;
34920;SDS011;21128;50.016;20.002;2023-01-15T02:51:39;4.93;;;1.83;;
34920;SDS011;21128;50.016;20.002;2023-01-15T02:54:31;3.20;;;2.00;;
34920;SDS011;21128;50.016;20.002;2023-01-15T02:57:21;4.47;;;2.47;;
34920;SDS011;21128;50.016;20.002;2023-01-15T03:00:11;3.27;;;1.90;;
34920;SDS011;21128;50.016;20.002;2023-01-15T03:03:06;4.03;;;1.63;;
34920;SDS011;21128;50.016;20.002;2023-01-15T03:05:59;4.73;;;2.10;;
34920;SDS011;21128;50.016;20.002;2023-01-15T03:09:05;3.57;;;2.17;;
34920;SDS011;21128;50.016;20.002;2023-01-15T03:12:02;3.73;;;2.17;;
34920;SDS011;21128;50.016;20.002;2023-01-15T03:15:01;8.63;;;2.45;;
34920;SDS011;21128;50.016;20.002;2023-01-15T03:17:52;3.70;;;2.00;;
34920;SDS011;21128;50.016;20.002;2023-01-15T03:20:41;6.07;;;2.40;;
34920;SDS011;21128;50.016;20.002;2023-01-15T03:23:32;3.00;;;1.80;;
34920;SDS011;21128;50.016;20.002;2023-01-15T03:26:23;4.70;;;2.23;;
34920;SDS011;21128;50.016;20.002;2023-01-15T03:29:08;3.90;;;2.37;;
34920;SDS011;21128;50.016;20.002;2023-01-15T03:31:57;4.37;;;2.00;;
34920;SDS011;21128;50.016;20.002;2023-01-15T03:34:52;6.00;;;2.30;;
34920;SDS011;21128;50.016;20.002;2023-01-15T03:37:40;3.07;;;2.00;;
34920;SDS011;21128;50.016;20.002;2023-01-15T03:40:26;4.50;;;2.00;;
34920;SDS011;21128;50.016;20.002;2023-01-15T03:43:12;3.70;;;2.07;;
34920;SDS011;21128;50.016;20.002;2023-01-15T03:49:38;5.40;;;2.03;;
34920;SDS011;21128;50.016;20.002;2023-01-15T03:58:46;2.70;;;2.23;;
34920;SDS011;21128;50.016;20.002;2023-01-15T04:01:38;4.40;;;2.45;;
34920;SDS011;21128;50.016;20.002;2023-01-15T04:04:26;2.63;;;2.00;;
34920;SDS011;21128;50.016;20.002;2023-01-15T04:07:13;6.93;;;2.40;;
34920;SDS011;21128;50.016;20.002;2023-01-15T04:10:12;4.90;;;2.37;;
34920;SDS011;21128;50.016;20.002;2023-01-15T04:12:58;6.90;;;2.50;;
34920;SDS011;21128;50.016;20.002;2023-01-15T04:15:43;3.73;;;1.90;;
34920;SDS011;21128;50.016;20.002;2023-01-15T04:18:29;6.27;;;2.10;;
34920;SDS011;21128;50.016;20.002;2023-01-15T04:21:15;4.50;;;2.23;;
34920;SDS011;21128;50.016;20.002;2023-01-15T04:24:00;4.13;;;2.23;;
34920;SDS011;21128;50.016;20.002;2023-01-15T04:26:46;2.90;;;1.90;;
34920;SDS011;21128;50.016;20.002;2023-01-15T04:29:31;4.40;;;2.40;;
34920;SDS011;21128;50.016;20.002;2023-01-15T04:32:17;3.40;;;2.13;;
34920;SDS011;21128;50.016;20.002;2023-01-15T04:35:03;3.87;;;2.30;;
34920;SDS011;21128;50.016;20.002;2023-01-15T04:37:53;4.30;;;2.40;;
34920;SDS011;21128;50.016;20.002;2023-01-15T04:40:40;3.40;;;2.30;;
34920;SDS011;21128;50.016;20.002;2023-01-15T04:43:44;3.20;;;2.03;;
34920;SDS011;21128;50.016;20.002;2023-01-15T04:46:49;3.73;;;2.43;;
34920;SDS011;21128;50.016;20.002;2023-01-15T04:49:35;4.35;;;2.40;;
34920;SDS011;21128;50.016;20.002;2023-01-15T04:52:21;3.90;;;2.17;;
34920;SDS011;21128;50.016;20.002;2023-01-15T04:55:07;5.33;;;2.57;;
34920;SDS011;21128;50.016;20.002;2023-01-15T04:57:53;10.87;;;2.80;;
34920;SDS011;21128;50.016;20.002;2023-01-15T05:00:39;4.00;;;2.47;;
34920;SDS011;21128;50.016;20.002;2023-01-15T05:03:25;5.97;;;2.33;;
34920;SDS011;21128;50.016;20.002;2023-01-15T05:06:12;3.25;;;2.05;;
34920;SDS011;21128;50.016;20.002;2023-01-15T05:09:05;3.70;;;2.23;;
34920;SDS011;21128;50.016;20.002;2023-01-15T05:11:51;5.10;;;2.57;;
34920;SDS011;21128;50.016;20.002;2023-01-15T05:14:36;7.43;;;2.40;;
34920;SDS011;21128;50.016;20.002;2023-01-15T05:17:22;7.10;;;2.30;;
34920;SDS011;21128;50.016;20.002;2023-01-15T05:20:09;4.30;;;2.30;;
34920;SDS011;21128;50.016;20.002;2023-01-15T05:22:55;3.83;;;2.20;;
34920;SDS011;21128;50.016;20.002;2023-01-15T05:25:40;4.43;;;2.07;;
34920;SDS011;21128;50.016;20.002;2023-01-15T05:28:26;5.40;;;2.03;;
34920;SDS011;21128;50.016;20.002;2023-01-15T05:31:13;7.23;;;2.40;;
34920;SDS011;21128;50.016;20.002;2023-01-15T05:34:00;3.87;;;2.30;;
34920;SDS011;21128;50.016;20.002;2023-01-15T05:36:46;3.80;;;2.27;;
34920;SDS011;21128;50.016;20.002;2023-01-15T05:39:32;4.50;;;2.30;;
34920;SDS011;21128;50.016;20.002;2023-01-15T05:42:18;6.37;;;2.53;;
34920;SDS011;21128;50.016;20.002;2023-01-15T05:45:04;3.20;;;2.10;;
34920;SDS011;21128;50.016;20.002;2023-01-15T05:47:51;5.07;;;2.50;;
34920;SDS011;21128;50.016;20.002;2023-01-15T05:50:37;2.75;;;1.80;;
34920;SDS011;21128;50.016;20.002;2023-01-15T05:53:23;4.33;;;2.70;;
34920;SDS011;21128;50.016;20.002;2023-01-15T05:56:08;5.07;;;2.60;;
34920;SDS011;21128;50.016;20.002;2023-01-15T05:58:54;3.93;;;2.20;;
34920;SDS011;21128;50.016;20.002;2023-01-15T06:01:40;3.57;;;1.90;;
34920;SDS011;21128;50.016;20.002;2023-01-15T06:04:27;4.20;;;2.50;;
34920;SDS011;21128;50.016;20.002;2023-01-15T06:07:13;6.20;;;2.40;;
34920;SDS011;21128;50.016;20.002;2023-01-15T06:10:19;2.80;;;2.03;;
34920;SDS011;21128;50.016;20.002;2023-01-15T06:13:04;2.35;;;1.55;;
34920;SDS011;21128;50.016;20.002;2023-01-15T06:15:50;3.40;;;2.00;;
34920;SDS011;21128;50.016;20.002;2023-01-15T06:18:36;3.30;;;2.17;;
34920;SDS011;21128;50.016;20.002;2023-01-15T06:21:23;3.25;;;2.10;;
34920;SDS011;21128;50.016;20.002;2023-01-15T06:24:09;3.00;;;2.00;;
34920;SDS011;21128;50.016;20.002;2023-01-15T06:26:55;5.13;;;2.10;;
34920;SDS011;21128;50.016;20.002;2023-01-15T06:29:41;5.93;;;1.90;;
34920;SDS011;21128;50.016;20.002;2023-01-15T06:32:26;5.70;;;2.30;;
34920;SDS011;21128;50.016;20.002;2023-01-15T06:35:12;3.60;;;1.93;;
34920;SDS011;21128;50.016;20.002;2023-01-15T06:37:58;2.93;;;1.57;;
34920;SDS011;21128;50.016;20.002;2023-01-15T06:40:44;4.50;;;2.03;;
34920;SDS011;21128;50.016;20.002;2023-01-15T06:43:29;3.73;;;1.73;;
34920;SDS011;21128;50.016;20.002;2023-01-15T06:46:34;3.90;;;2.00;;
34920;SDS011;21128;50.016;20.002;2023-01-15T06:49:38;4.03;;;1.80;;
34920;SDS011;21128;50.016;20.002;2023-01-15T06:52:25;3.55;;;1.70;;
34920;SDS011;21128;50.016;20.002;2023-01-15T06:55:12;6.05;;;3.00;;
34920;SDS011;21128;50.016;20.002;2023-01-15T06:57:58;6.00;;;3.00;;
34920;SDS011;21128;50.016;20.002;2023-01-15T07:00:46;3.03;;;2.10;;
34920;SDS011;21128;50.016;20.002;2023-01-15T07:03:40;6.57;;;2.00;;
34920;SDS011;21128;50.016;20.002;2023-01-15T07:06:26;4.93;;;1.57;;
34920;SDS011;21128;50.016;20.002;2023-01-15T07:09:12;5.97;;;1.80;;
34920;SDS011;21128;50.016;20.002;2023-01-15T07:12:04;2.80;;;1.83;;
34920;SDS011;21128;50.016;20.002;2023-01-15T07:14:50;2.40;;;1.70;;
34920;SDS011;21128;50.016;20.002;2023-01-15T07:17:37;4.97;;;2.13;;
34920;SDS011;21128;50.016;20.002;2023-01-15T07:20:23;2.67;;;1.80;;
34920;SDS011;21128;50.016;20.002;2023-01-15T07:23:09;3.43;;;1.97;;
34920;SDS011;21128;50.016;20.002;2023-01-15T07:25:54;5.40;;;1.90;;
34920;SDS011;21128;50.016;20.002;2023-01-15T07:28:40;4.97;;;2.53;;
34920;SDS011;21128;50.016;20.002;2023-01-15T07:31:25;3.90;;;2.00;;
34920;SDS011;21128;50.016;20.002;2023-01-15T07:34:11;4.00;;;1.95;;
34920;SDS011;21128;50.016;20.002;2023-01-15T07:36:57;2.83;;;2.03;;
34920;SDS011;21128;50.016;20.002;2023-01-15T07:39:42;5.00;;;2.55;;
34920;SDS011;21128;50.016;20.002;2023-01-15T07:42:28;3.77;;;1.80;;
34920;SDS011;21128;50.016;20.002;2023-01-15T07:45:36;5.40;;;1.80;;
34920;SDS011;21128;50.016;20.002;2023-01-15T07:48:49;5.57;;;2.10;;
34920;SDS011;21128;50.016;20.002;2023-01-15T07:51:54;3.40;;;2.00;;
34920;SDS011;21128;50.016;20.002;2023-01-15T07:54:40;10.37;;;5.37;;
34920;SDS011;21128;50.016;20.002;2023-01-15T07:57:26;5.77;;;2.37;;
34920;SDS011;21128;50.016;20.002;2023-01-15T08:00:14;4.57;;;2.20;;
34920;SDS011;21128;50.016;20.002;2023-01-15T08:03:07;4.13;;;2.27;;
34920;SDS011;21128;50.016;20.002;2023-01-15T08:05:53;3.70;;;1.93;;
34920;SDS011;21128;50.016;20.002;2023-01-15T08:08:39;2.50;;;1.90;;
34920;SDS011;21128;50.016;20.002;2023-01-15T08:11:32;3.00;;;1.80;;
34920;SDS011;21128;50.016;20.002;2023-01-15T08:14:37;3.30;;;1.90;;
34920;SDS011;21128;50.016;20.002;2023-01-15T08:17:46;3.47;;;1.90;;
34920;SDS011;21128;50.016;20.002;2023-01-15T08:20:34;3.07;;;1.73;;
34920;SDS011;21128;50.016;20.002;2023-01-15T08:23:21;7.87;;;2.07;;
34920;SDS011;21128;50.016;20.002;2023-01-15T08:26:06;3.13;;;1.93;;
34920;SDS011;21128;50.016;20.002;2023-01-15T08:28:52;3.37;;;1.70;;
34920;SDS011;21128;50.016;20.002;2023-01-15T08:31:38;2.67;;;1.60;;
34920;SDS011;21128;50.016;20.002;2023-01-15T08:34:25;4.00;;;2.03;;
34920;SDS011;21128;50.016;20.002;2023-01-15T08:37:11;3.40;;;1.90;;
34920;SDS011;21128;50.016;20.002;2023-01-15T08:39:56;3.80;;;1.80;;
34920;SDS011;21128;50.016;20.002;2023-01-15T08:42:42;5.00;;;1.83;;
34920;SDS011;21128;50.016;20.002;2023-01-15T08:45:27;5.77;;;2.40;;
34920;SDS011;21128;50.016;20.002;2023-01-15T08:48:13;2.80;;;1.60;;
34920;SDS011;21128;50.016;20.002;2023-01-15T08:51:02;19.90;;;11.87;;
34920;SDS011;21128;50.016;20.002;2023-01-15T08:53:52;2.83;;;1.70;;
34920;SDS011;21128;50.016;20.002;2023-01-15T08:56:37;3.63;;;1.63;;
34920;SDS011;21128;50.016;20.002;2023-01-15T08:59:23;1.90;;;1.50;;
34920;SDS011;21128;50.016;20.002;2023-01-15T09:02:10;2.53;;;1.53;;
34920;SDS011;21128;50.016;20.002;2023-01-15T09:04:58;3.00;;;1.50;;
34920;SDS011;21128;50.016;20.002;2023-01-15T09:07:50;2.97;;;1.47;;
34920;SDS011;21128;50.016;20.002;2023-01-15T09:10:48;4.07;;;1.50;;
34920;SDS011;21128;50.016;20.002;2023-01-15T09:13:35;3.77;;;1.80;;
34920;SDS011;21128;50.016;20.002;2023-01-15T09:16:22;2.20;;;1.70;;
34920;SDS011;21128;50.016;20.002;2023-01-15T09:19:10;5.53;;;1.53;;
34920;SDS011;21128;50.016;20.002;2023-01-15T09:21:56;4.80;;;1.90;;
34920;SDS011;21128;50.016;20.002;2023-01-15T09:24:41;5.93;;;1.93;;
34920;SDS011;21128;50.016;20.002;2023-01-15T09:27:27;10.57;;;6.07;;
34920;SDS011;21128;50.016;20.002;2023-01-15T09:30:15;4.55;;;2.30;;
34920;SDS011;21128;50.016;20.002;2023-01-15T09:33:03;4.37;;;2.20;;
34920;SDS011;21128;50.016;20.002;2023-01-15T09:35:49;5.07;;;2.03;;
34920;SDS011;21128;50.016;20.002;2023-01-15T09:38:35;3.00;;;1.63;;
34920;SDS011;21128;50.016;20.002;2023-01-15T09:41:21;2.70;;;1.60;;
34920;SDS011;21128;50.016;20.002;2023-01-15T09:50:35;2.67;;;1.40;;
34920;SDS011;21128;50.016;20.002;2023-01-15T09:53:44;2.47;;;1.37;;
34920;SDS011;21128;50.016;20.002;2023-01-15T09:56:35;2.27;;;1.33;;
34920;SDS011;21128;50.016;20.002;2023-01-15T09:59:32;2.37;;;1.50;;
34920;SDS011;21128;50.016;20.002;2023-01-15T10:05:23;5.20;;;1.57;;
34920;SDS011;21128;50.016;20.002;2023-01-15T10:08:23;3.20;;;1.30;;
34920;SDS011;21128;50.016;20.002;2023-01-15T10:13:59;3.20;;;1.30;;
34920;SDS011;21128;50.016;20.002;2023-01-15T10:16:50;3.93;;;1.83;;
34920;SDS011;21128;50.016;20.002;2023-01-15T10:19:36;8.83;;;2.77;;
34920;SDS011;21128;50.016;20.002;2023-01-15T10:22:40;5.87;;;2.17;;
34920;SDS011;21128;50.016;20.002;2023-01-15T10:25:41;5.00;;;1.70;;
34920;SDS011;21128;50.016;20.002;2023-01-15T10:28:43;3.27;;;1.70;;
34920;SDS011;21128;50.016;20.002;2023-01-15T10:32:04;2.70;;;1.50;;
34920;SDS011;21128;50.016;20.002;2023-01-15T10:38:32;14.83;;;10.03;;
34920;SDS011;21128;50.016;20.002;2023-01-15T10:41:38;4.17;;;1.97;;
34920;SDS011;21128;50.016;20.002;2023-01-15T10:50:40;2.70;;;1.60;;
34920;SDS011;21128;50.016;20.002;2023-01-15T10:53:33;7.30;;;2.07;;
34920;SDS011;21128;50.016;20.002;2023-01-15T10:56:34;2.20;;;1.37;;
34920;SDS011;21128;50.016;20.002;2023-01-15T11:02:41;4.87;;;2.23;;
34920;SDS011;21128;50.016;20.002;2023-01-15T11:05:29;4.07;;;2.00;;
34920;SDS011;21128;50.016;20.002;2023-01-15T11:08:24;6.87;;;2.20;;
34920;SDS011;21128;50.016;20.002;2023-01-15T11:11:32;4.97;;;2.10;;
34920;SDS011;21128;50.016;20.002;2023-01-15T11:14:46;6.00;;;2.40;;
34920;SDS011;21128;50.016;20.002;2023-01-15T11:17:50;5.10;;;2.30;;
34920;SDS011;21128;50.016;20.002;2023-01-15T11:20:55;3.20;;;1.70;;
34920;SDS011;21128;50.016;20.002;2023-01-15T11:23:41;5.87;;;1.87;;
34920;SDS011;21128;50.016;20.002;2023-01-15T11:26:28;4.83;;;2.10;;
34920;SDS011;21128;50.016;20.002;2023-01-15T11:29:33;3.90;;;2.23;;
34920;SDS011;21128;50.016;20.002;2023-01-15T11:32:34;5.00;;;2.30;;
34920;SDS011;21128;50.016;20.002;2023-01-15T11:35:22;4.90;;;2.27;;
34920;SDS011;21128;50.016;20.002;2023-01-15T11:38:14;3.97;;;2.20;;
34920;SDS011;21128;50.016;20.002;2023-01-15T11:41:00;5.43;;;2.63;;
34920;SDS011;21128;50.016;20.002;2023-01-15T11:43:56;6.43;;;2.63;;
34920;SDS011;21128;50.016;20.002;2023-01-15T11:47:02;8.90;;;3.83;;
34920;SDS011;21128;50.016;20.002;2023-01-15T11:50:16;5.93;;;2.53;;
34920;SDS011;21128;50.016;20.002;2023-01-15T11:53:23;4.27;;;2.30;;
34920;SDS011;21128;50.016;20.002;2023-01-15T11:56:23;5.80;;;2.20;;
34920;SDS011;21128;50.016;20.002;2023-01-15T11:59:12;5.30;;;2.70;;
34920;SDS011;21128;50.016;20.002;2023-01-15T12:02:24;3.65;;;2.00;;
34920;SDS011;21128;50.016;20.002;2023-01-15T12:05:18;4.03;;;2.30;;
34920;SDS011;21128;50.016;20.002;2023-01-15T12:24:13;4.47;;;2.77;;
34920;SDS011;21128;50.016;20.002;2023-01-15T12:33:27;7.47;;;3.60;;
34920;SDS011;21128;50.016;20.002;2023-01-15T12:36:25;8.00;;;2.98;;
34920;SDS011;21128;50.016;20.002;2023-01-15T12:39:30;5.87;;;3.20;;
34920;SDS011;21128;50.016;20.002;2023-01-15T12:42:21;5.27;;;3.07;;
34920;SDS011;21128;50.016;20.002;2023-01-15T12:45:33;6.60;;;3.27;;
34920;SDS011;21128;50.016;20.002;2023-01-15T12:51:44;6.83;;;2.97;;
34920;SDS011;21128;50.016;20.002;2023-01-15T12:54:37;5.00;;;3.53;;
34920;SDS011;21128;50.016;20.002;2023-01-15T12:57:32;6.97;;;3.33;;
34920;SDS011;21128;50.016;20.002;2023-01-15T13:03:22;5.65;;;3.30;;
34920;SDS011;21128;50.016;20.002;2023-01-15T13:06:11;5.37;;;3.30;;
34920;SDS011;21128;50.016;20.002;2023-01-15T13:09:03;5.17;;;3.17;;
34920;SDS011;21128;50.016;20.002;2023-01-15T13:12:16;5.60;;;3.70;;
34920;SDS011;21128;50.016;20.002;2023-01-15T13:15:02;6.10;;;3.07;;
34920;SDS011;21128;50.016;20.002;2023-01-15T13:17:54;4.47;;;2.77;;
34920;SDS011;21128;50.016;20.002;2023-01-15T13:20:47;9.53;;;3.67;;
34920;SDS011;21128;50.016;20.002;2023-01-15T13:32:34;4.17;;;2.97;;
34920;SDS011;21128;50.016;20.002;2023-01-15T13:35:39;6.63;;;3.03;;
34920;SDS011;21128;50.016;20.002;2023-01-15T13:38:32;6.00;;;3.60;;
34920;SDS011;21128;50.016;20.002;2023-01-15T13:41:25;5.80;;;3.35;;
34920;SDS011;21128;50.016;20.002;2023-01-15T13:44:35;5.90;;;3.73;;
34920;SDS011;21128;50.016;20.002;2023-01-15T13:47:27;5.00;;;3.53;;
34920;SDS011;21128;50.016;20.002;2023-01-15T13:50:18;5.20;;;2.97;;
34920;SDS011;21128;50.016;20.002;2023-01-15T13:53:15;6.97;;;3.57;;
34920;SDS011;21128;50.016;20.002;2023-01-15T13:56:11;5.07;;;3.87;;
34920;SDS011;21128;50.016;20.002;2023-01-15T13:59:02;5.90;;;3.93;;
34920;SDS011;21128;50.016;20.002;2023-01-15T14:01:51;6.77;;;3.70;;
34920;SDS011;21128;50.016;20.002;2023-01-15T14:04:36;6.57;;;3.67;;
34920;SDS011;21128;50.016;20.002;2023-01-15T14:07:34;5.17;;;3.47;;
34920;SDS011;21128;50.016;20.002;2023-01-15T14:34:57;6.17;;;3.73;;
34920;SDS011;21128;50.016;20.002;2023-01-15T14:40:36;6.10;;;3.60;;
34920;SDS011;21128;50.016;20.002;2023-01-15T14:43:27;6.50;;;3.83;;
34920;SDS011;21128;50.016;20.002;2023-01-15T14:46:26;7.33;;;4.17;;
34920;SDS011;21128;50.016;20.002;2023-01-15T14:49:28;5.70;;;3.73;;
34920;SDS011;21128;50.016;20.002;2023-01-15T14:52:20;4.77;;;3.60;;
34920;SDS011;21128;50.016;20.002;2023-01-15T14:55:08;7.07;;;3.70;;
34920;SDS011;21128;50.016;20.002;2023-01-15T14:58:09;4.83;;;3.60;;
34920;SDS011;21128;50.016;20.002;2023-01-15T15:04:26;6.45;;;4.25;;
34920;SDS011;21128;50.016;20.002;2023-01-15T15:07:25;5.90;;;3.53;;
34920;SDS011;21128;50.016;20.002;2023-01-15T15:10:21;6.30;;;3.87;;
34920;SDS011;21128;50.016;20.002;2023-01-15T15:16:20;5.90;;;4.20;;
34920;SDS011;21128;50.016;20.002;2023-01-15T15:19:16;6.43;;;4.43;;
34920;SDS011;21128;50.016;20.002;2023-01-15T15:22:10;7.10;;;4.63;;
34920;SDS011;21128;50.016;20.002;2023-01-15T15:25:00;6.97;;;4.67;;
34920;SDS011;21128;50.016;20.002;2023-01-15T15:28:02;6.43;;;4.23;;
34920;SDS011;21128;50.016;20.002;2023-01-15T15:30:49;5.87;;;4.40;;
34920;SDS011;21128;50.016;20.002;2023-01-15T15:33:37;8.00;;;5.20;;
34920;SDS011;21128;50.016;20.002;2023-01-15T15:36:26;9.67;;;5.10;;
34920;SDS011;21128;50.016;20.002;2023-01-15T15:39:16;7.57;;;4.83;;
34920;SDS011;21128;50.016;20.002;2023-01-15T15:42:05;8.03;;;5.43;;
34920;SDS011;21128;50.016;20.002;2023-01-15T15:45:24;7.87;;;4.83;;
34920;SDS011;21128;50.016;20.002;2023-01-15T15:48:32;7.07;;;4.43;;
34920;SDS011;21128;50.016;20.002;2023-01-15T15:54:18;10.40;;;5.35;;
34920;SDS011;21128;50.016;20.002;2023-01-15T15:57:13;11.83;;;8.17;;
34920;SDS011;21128;50.016;20.002;2023-01-15T16:00:03;10.57;;;6.83;;
34920;SDS011;21128;50.016;20.002;2023-01-15T16:02:49;9.15;;;5.20;;
34920;SDS011;21128;50.016;20.002;2023-01-15T16:05:36;8.27;;;4.57;;
34920;SDS011;21128;50.016;20.002;2023-01-15T16:08:22;6.67;;;4.60;;
34920;SDS011;21128;50.016;20.002;2023-01-15T16:11:15;8.27;;;4.47;;
34920;SDS011;21128;50.016;20.002;2023-01-15T16:14:03;5.47;;;4.03;;
34920;SDS011;21128;50.016;20.002;2023-01-15T16:16:52;6.23;;;4.23;;
34920;SDS011;21128;50.016;20.002;2023-01-15T16:19:39;7.93;;;5.13;;
34920;SDS011;21128;50.016;20.002;2023-01-15T16:22:26;6.40;;;4.60;;
34920;SDS011;21128;50.016;20.002;2023-01-15T16:25:22;6.77;;;4.40;;
34920;SDS011;21128;50.016;20.002;2023-01-15T16:28:23;7.23;;;4.50;;
34920;SDS011;21128;50.016;20.002;2023-01-15T16:31:12;5.70;;;3.90;;
34920;SDS011;21128;50.016;20.002;2023-01-15T16:34:00;5.60;;;3.70;;
34920;SDS011;21128;50.016;20.002;2023-01-15T16:36:47;7.27;;;4.10;;
34920;SDS011;21128;50.016;20.002;2023-01-15T16:39:43;5.03;;;3.90;;
34920;SDS011;21128;50.016;20.002;2023-01-15T16:42:32;6.23;;;4.00;;
34920;SDS011;21128;50.016;20.002;2023-01-15T16:45:22;5.27;;;3.80;;
34920;SDS011;21128;50.016;20.002;2023-01-15T16:48:23;8.57;;;4.97;;
34920;SDS011;21128;50.016;20.002;2023-01-15T16:57:24;7.30;;;4.47;;
34920;SDS011;21128;50.016;20.002;2023-01-15T17:00:22;6.70;;;4.30;;
34920;SDS011;21128;50.016;20.002;2023-01-15T17:03:21;8.20;;;4.10;;
34920;SDS011;21128;50.016;20.002;2023-01-15T17:06:10;5.83;;;4.37;;
34920;SDS011;21128;50.016;20.002;2023-01-15T17:09:04;8.27;;;4.03;;
34920;SDS011;21128;50.016;20.002;2023-01-15T17:11:49;6.13;;;4.10;;
34920;SDS011;21128;50.016;20.002;2023-01-15T17:14:36;7.60;;;4.50;;
34920;SDS011;21128;50.016;20.002;2023-01-15T17:20:08;6.97;;;4.33;;
34920;SDS011;21128;50.016;20.002;2023-01-15T17:22:56;8.03;;;5.07;;
34920;SDS011;21128;50.016;20.002;2023-01-15T17:25:42;7.47;;;4.87;;
34920;SDS011;21128;50.016;20.002;2023-01-15T17:28:28;7.27;;;4.63;;
34920;SDS011;21128;50.016;20.002;2023-01-15T17:31:23;9.33;;;5.17;;
34920;SDS011;21128;50.016;20.002;2023-01-15T17:34:14;9.53;;;5.33;;
34920;SDS011;21128;50.016;20.002;2023-01-15T17:37:00;8.05;;;4.90;;
34920;SDS011;21128;50.016;20.002;2023-01-15T17:39:46;9.60;;;4.90;;
34920;SDS011;21128;50.016;20.002;2023-01-15T17:42:31;12.53;;;5.67;;
34920;SDS011;21128;50.016;20.002;2023-01-15T17:45:18;8.23;;;4.50;;
34920;SDS011;21128;50.016;20.002;2023-01-15T17:48:09;6.85;;;4.20;;
34920;SDS011;21128;50.016;20.002;2023-01-15T17:50:55;6.10;;;3.90;;
34920;SDS011;21128;50.016;20.002;2023-01-15T17:53:44;6.23;;;3.93;;
34920;SDS011;21128;50.016;20.002;2023-01-15T17:56:29;8.70;;;4.87;;
34920;SDS011;21128;50.016;20.002;2023-01-15T17:59:34;9.77;;;5.20;;
34920;SDS011;21128;50.016;20.002;2023-01-15T18:02:39;8.63;;;5.67;;
34920;SDS011;21128;50.016;20.002;2023-01-15T18:05:46;8.67;;;5.57;;
34920;SDS011;21128;50.016;20.002;2023-01-15T18:08:35;10.77;;;5.33;;
34920;SDS011;21128;50.016;20.002;2023-01-15T18:11:35;10.87;;;4.83;;
34920;SDS011;21128;50.016;20.002;2023-01-15T18:14:20;8.47;;;5.23;;
34920;SDS011;21128;50.016;20.002;2023-01-15T18:17:06;7.53;;;4.73;;
34920;SDS011;21128;50.016;20.002;2023-01-15T18:19:51;9.30;;;4.57;;
34920;SDS011;21128;50.016;20.002;2023-01-15T18:22:38;6.60;;;3.93;;
34920;SDS011;21128;50.016;20.002;2023-01-15T18:25:23;5.53;;;4.00;;
34920;SDS011;21128;50.016;20.002;2023-01-15T18:28:09;6.03;;;3.63;;
34920;SDS011;21128;50.016;20.002;2023-01-15T18:30:54;5.27;;;3.63;;
34920;SDS011;21128;50.016;20.002;2023-01-15T18:33:40;4.00;;;3.40;;
34920;SDS011;21128;50.016;20.002;2023-01-15T18:36:25;6.20;;;3.50;;
34920;SDS011;21128;50.016;20.002;2023-01-15T18:39:11;5.03;;;3.20;;
34920;SDS011;21128;50.016;20.002;2023-01-15T18:41:57;6.83;;;3.53;;
34920;SDS011;21128;50.016;20.002;2023-01-15T18:44:43;6.60;;;3.50;;
34920;SDS011;21128;50.016;20.002;2023-01-15T18:47:48;5.70;;;3.65;;
34920;SDS011;21128;50.016;20.002;2023-01-15T18:50:34;4.80;;;3.10;;
34920;SDS011;21128;50.016;20.002;2023-01-15T18:53:20;4.43;;;2.97;;
34920;SDS011;21128;50.016;20.002;2023-01-15T18:56:07;6.67;;;2.70;;
34920;SDS011;21128;50.016;20.002;2023-01-15T18:58:52;5.43;;;3.10;;
34920;SDS011;21128;50.016;20.002;2023-01-15T19:01:38;6.10;;;3.13;;
34920;SDS011;21128;50.016;20.002;2023-01-15T19:04:25;4.00;;;3.03;;
34920;SDS011;21128;50.016;20.002;2023-01-15T19:07:11;5.20;;;2.60;;
34920;SDS011;21128;50.016;20.002;2023-01-15T19:10:03;6.07;;;3.33;;